createdAt,value
2023-01-17T00:02:33.666Z,23.10
2023-01-17T00:07:53.858Z,16.70
2023-01-17T00:13:04.946Z,18.10
2023-01-17T00:18:06.686Z,15.30
2023-01-17T00:23:41.292Z,19.10
2023-01-17T00:28:43.983Z,13.30
2023-01-17T00:33:45.751Z,14.50
2023-01-17T00:38:48.072Z,15.20
2023-01-17T00:44:09.067Z,20.40
2023-01-17T00:49:29.769Z,17.60
2023-01-17T00:54:50.144Z,13.00
2023-01-17T01:00:10.599Z,15.20
2023-01-17T01:05:32.011Z,10.60
2023-01-17T01:10:52.156Z,9.00
2023-01-17T01:16:13.150Z,6.70
2023-01-17T01:21:33.448Z,7.10
2023-01-17T01:26:53.792Z,4.70
2023-01-17T01:32:14.251Z,7.20
2023-01-17T01:37:15.977Z,3.40
2023-01-17T01:42:17.700Z,4.60
2023-01-17T01:47:28.365Z,2.90
2023-01-17T01:52:33.282Z,4.50
2023-01-17T01:57:40.663Z,3.90
2023-01-17T02:02:44.671Z,4.80
2023-01-17T02:08:02.018Z,2.90
2023-01-17T02:13:04.503Z,3.40
2023-01-17T02:18:24.002Z,3.20
2023-01-17T02:24:02.890Z,2.80
2023-01-17T02:29:27.443Z,4.50
2023-01-17T02:34:46.140Z,3.20
2023-01-17T02:40:30.438Z,3.20
2023-01-17T02:45:32.389Z,4.10
2023-01-17T02:50:55.095Z,3.40
2023-01-17T02:56:38.883Z,2.10
2023-01-17T03:02:10.434Z,5.00
2023-01-17T03:07:17.518Z,2.40
2023-01-17T03:12:21.047Z,2.10
2023-01-17T03:17:26.470Z,2.90
2023-01-17T03:22:29.398Z,2.50
2023-01-17T03:27:31.197Z,2.80
2023-01-17T03:32:32.842Z,3.30
2023-01-17T03:37:35.269Z,2.70
2023-01-17T03:42:36.962Z,3.20
2023-01-17T03:47:38.808Z,4.70
2023-01-17T03:52:40.646Z,3.30
2023-01-17T03:57:42.487Z,3.30
2023-01-17T04:02:44.257Z,4.10
2023-01-17T04:07:46.182Z,8.10
2023-01-17T04:12:47.863Z,5.60
2023-01-17T04:17:49.763Z,4.30
2023-01-17T04:22:51.507Z,3.90
2023-01-17T04:27:54.008Z,6.70
2023-01-17T04:32:55.758Z,6.50
2023-01-17T04:37:57.535Z,7.50
2023-01-17T04:42:59.551Z,5.30
2023-01-17T04:48:05.980Z,9.20
2023-01-17T04:53:07.781Z,5.60
2023-01-17T04:58:09.466Z,6.30
2023-01-17T05:03:11.099Z,5.60
2023-01-17T05:08:12.823Z,4.90
2023-01-17T05:13:15.351Z,9.10
2023-01-17T05:18:18.561Z,5.60
2023-01-17T05:23:20.298Z,5.90
2023-01-17T05:28:21.982Z,7.50
2023-01-17T05:33:23.614Z,7.60
2023-01-17T05:38:25.355Z,4.60
2023-01-17T05:43:28.298Z,4.90
2023-01-17T05:48:30.028Z,5.50
2023-01-17T05:53:31.752Z,5.10
2023-01-17T05:58:33.364Z,10.50
2023-01-17T06:03:35.880Z,6.00
2023-01-17T06:08:37.796Z,5.90
2023-01-17T06:13:39.652Z,6.20
2023-01-17T06:18:42.384Z,11.80
2023-01-17T06:23:44.080Z,6.40
2023-01-17T06:28:47.994Z,6.60
2023-01-17T06:33:49.722Z,7.50
2023-01-17T06:38:51.770Z,8.30
2023-01-17T06:43:54.706Z,4.70
2023-01-17T06:48:56.371Z,6.50
2023-01-17T06:53:58.253Z,10.30
2023-01-17T06:58:59.887Z,7.80
2023-01-17T07:04:03.420Z,10.00
2023-01-17T07:09:05.366Z,7.80
2023-01-17T07:14:12.483Z,5.50
2023-01-17T07:19:14.361Z,6.50
2023-01-17T07:24:16.135Z,5.70
2023-01-17T07:29:18.562Z,4.10
2023-01-17T07:34:20.917Z,5.60
2023-01-17T07:39:22.661Z,4.70
2023-01-17T07:44:24.302Z,5.70
2023-01-17T07:49:26.109Z,4.10
2023-01-17T07:54:27.821Z,4.00
2023-01-17T07:59:30.186Z,5.20
2023-01-17T08:04:35.169Z,6.40
2023-01-17T08:09:36.999Z,4.40
2023-01-17T08:14:38.646Z,3.20
2023-01-17T08:19:40.491Z,4.40
2023-01-17T08:24:42.222Z,3.60
2023-01-17T08:29:47.195Z,3.60
2023-01-17T08:34:50.276Z,6.20
2023-01-17T08:39:51.949Z,6.30
2023-01-17T08:44:53.670Z,3.70
2023-01-17T08:49:55.357Z,4.70
2023-01-17T08:54:57.496Z,4.80
2023-01-17T08:59:59.373Z,5.10
2023-01-17T09:05:01.035Z,4.80
2023-01-17T09:10:02.947Z,4.00
2023-01-17T09:15:05.259Z,3.00
2023-01-17T09:20:08.686Z,5.40
2023-01-17T09:25:10.561Z,4.30
2023-01-17T09:30:14.385Z,4.10
2023-01-17T09:35:18.328Z,5.10
2023-01-17T09:40:24.643Z,3.90
2023-01-17T09:45:30.055Z,4.80
2023-01-17T09:50:38.194Z,4.60
2023-01-17T09:56:02.647Z,3.90
2023-01-17T10:01:14.628Z,5.00
2023-01-17T10:06:35.413Z,4.40
2023-01-17T10:11:45.890Z,5.10
2023-01-17T10:17:04.715Z,3.50
2023-01-17T10:22:38.033Z,4.00
2023-01-17T10:27:55.278Z,4.90
2023-01-17T10:32:59.838Z,3.40
2023-01-17T10:38:06.776Z,3.60
2023-01-17T10:43:22.160Z,3.50
2023-01-17T10:48:34.272Z,3.50
2023-01-17T10:53:56.871Z,3.00
2023-01-17T10:59:26.249Z,2.30
2023-01-17T11:04:40.906Z,2.40
2023-01-17T11:09:44.991Z,2.60
2023-01-17T11:14:59.812Z,3.60
2023-01-17T11:20:27.970Z,2.80
2023-01-17T11:25:33.897Z,3.50
2023-01-17T11:30:36.204Z,3.20
2023-01-17T11:35:44.891Z,4.70
2023-01-17T11:40:48.995Z,5.80
2023-01-17T11:46:02.749Z,2.70
2023-01-17T11:51:18.076Z,3.30
2023-01-17T11:56:31.059Z,2.30
2023-01-17T12:01:57.990Z,2.30
2023-01-17T12:07:28.722Z,3.00
2023-01-17T12:13:08.154Z,3.10
2023-01-17T12:18:28.733Z,2.10
2023-01-17T12:23:43.442Z,2.30
2023-01-17T12:28:55.926Z,2.80
2023-01-17T12:34:07.980Z,3.20
2023-01-17T12:39:14.143Z,3.00
2023-01-17T12:44:20.052Z,3.60
2023-01-17T12:49:51.488Z,3.20
2023-01-17T12:55:05.840Z,2.80
2023-01-17T13:00:19.908Z,2.30
2023-01-17T13:05:32.276Z,2.30
2023-01-17T13:10:48.012Z,2.80
2023-01-17T13:15:54.340Z,2.90
2023-01-17T13:21:30.138Z,2.90
2023-01-17T13:26:47.635Z,3.20
2023-01-17T13:32:06.055Z,2.20
2023-01-17T13:37:41.928Z,2.80
2023-01-17T13:43:05.358Z,3.00
2023-01-17T13:48:14.582Z,1.70
2023-01-17T13:53:34.545Z,1.80
2023-01-17T13:59:02.800Z,2.20
2023-01-17T14:04:07.490Z,2.70
2023-01-17T14:09:21.447Z,2.50
2023-01-17T14:14:44.342Z,3.00
2023-01-17T14:19:49.683Z,2.70
2023-01-17T14:25:17.297Z,3.40
2023-01-17T14:30:25.668Z,3.30
2023-01-17T14:35:36.817Z,3.60
2023-01-17T14:40:38.722Z,3.40
2023-01-17T14:45:42.168Z,2.90
2023-01-17T14:50:46.215Z,3.60
2023-01-17T14:55:47.885Z,3.40
2023-01-17T15:00:58.277Z,3.30
2023-01-17T15:06:11.514Z,3.20
2023-01-17T15:11:19.841Z,2.40
2023-01-17T15:16:28.123Z,4.00
2023-01-17T15:21:35.463Z,4.50
2023-01-17T15:26:43.091Z,3.60
2023-01-17T15:31:48.677Z,4.10
2023-01-17T15:36:51.272Z,3.80
2023-01-17T15:41:55.069Z,3.70
2023-01-17T15:46:56.714Z,4.40
2023-01-17T15:52:10.518Z,5.10
2023-01-17T15:57:32.692Z,4.50
2023-01-17T16:02:55.416Z,6.00
2023-01-17T16:08:01.622Z,7.00
2023-01-17T16:13:05.670Z,12.10
2023-01-17T16:18:25.890Z,8.40
2023-01-17T16:23:28.476Z,14.40
2023-01-17T16:28:30.131Z,18.00
2023-01-17T16:33:31.850Z,15.60
2023-01-17T16:38:33.588Z,11.20
2023-01-17T16:43:35.329Z,15.20
2023-01-17T16:48:37.503Z,15.10
2023-01-17T16:53:39.160Z,22.60
2023-01-17T16:58:41.557Z,22.40
2023-01-17T17:03:44.693Z,20.80
2023-01-17T17:08:47.479Z,10.00
2023-01-17T17:13:50.718Z,10.60
2023-01-17T17:19:01.248Z,11.40
2023-01-17T17:24:03.628Z,9.80
2023-01-17T17:29:07.247Z,10.60
2023-01-17T17:34:11.534Z,6.70
2023-01-17T17:39:17.371Z,13.80
2023-01-17T17:44:19.105Z,14.70
2023-01-17T17:49:22.687Z,11.10
2023-01-17T17:54:24.750Z,17.80
2023-01-17T17:59:26.996Z,14.50
2023-01-17T18:04:28.830Z,17.00
2023-01-17T18:09:30.659Z,20.20
2023-01-17T18:14:32.673Z,13.10
2023-01-17T18:19:34.526Z,19.80
2023-01-17T18:24:36.340Z,17.90
2023-01-17T18:29:38.048Z,15.50
2023-01-17T18:34:41.450Z,16.40
2023-01-17T18:39:43.789Z,14.90
2023-01-17T18:44:45.694Z,17.40
2023-01-17T18:49:47.473Z,16.10
2023-01-17T18:54:49.147Z,19.40
2023-01-17T18:59:50.975Z,21.70
2023-01-17T19:04:52.810Z,17.60
2023-01-17T19:09:54.585Z,17.30
2023-01-17T19:14:56.474Z,17.10
2023-01-17T19:19:58.586Z,12.10
2023-01-17T19:25:00.206Z,18.70
2023-01-17T19:30:01.907Z,17.30
2023-01-17T19:35:03.728Z,16.50
2023-01-17T19:40:08.171Z,22.50
2023-01-17T19:45:11.868Z,15.20
2023-01-17T19:50:14.863Z,16.00
2023-01-17T19:55:17.694Z,12.40
2023-01-17T20:00:22.928Z,12.80
2023-01-17T20:05:27.434Z,38.20
2023-01-17T20:10:29.676Z,43.20
2023-01-17T20:15:31.647Z,21.50
2023-01-17T20:20:34.647Z,8.10
2023-01-17T20:25:36.506Z,15.60
2023-01-17T20:30:38.140Z,14.70
2023-01-17T20:35:41.028Z,25.00
2023-01-17T20:40:42.884Z,30.40
2023-01-17T20:45:44.671Z,22.30
2023-01-17T20:50:46.501Z,15.40
2023-01-17T20:55:55.559Z,17.10
2023-01-17T21:00:58.596Z,17.50
2023-01-17T21:06:02.344Z,28.90
2023-01-17T21:11:05.327Z,25.10
2023-01-17T21:16:09.216Z,23.80
2023-01-17T21:21:14.044Z,21.10
2023-01-17T21:26:17.622Z,20.40
2023-01-17T21:31:24.114Z,30.70
2023-01-17T21:36:28.834Z,24.80
2023-01-17T21:41:33.873Z,25.30
2023-01-17T21:46:41.024Z,22.30
2023-01-17T21:51:52.472Z,23.00
2023-01-17T21:57:12.852Z,24.30
2023-01-17T22:02:14.738Z,24.50
2023-01-17T22:07:16.698Z,37.00
2023-01-17T22:12:24.407Z,28.10
2023-01-17T22:17:26.267Z,20.80
2023-01-17T22:22:32.555Z,30.60
2023-01-17T22:27:34.394Z,28.80
2023-01-17T22:32:39.397Z,24.20
2023-01-17T22:37:41.405Z,29.70
2023-01-17T22:42:43.940Z,29.20
2023-01-17T22:47:45.710Z,26.60
2023-01-17T22:52:47.384Z,23.60
2023-01-17T22:57:49.132Z,15.70
2023-01-17T23:02:51.002Z,32.40
2023-01-17T23:07:53.512Z,23.20
2023-01-17T23:12:55.638Z,23.90
2023-01-17T23:18:16.453Z,18.50
2023-01-17T23:23:18.107Z,29.30
2023-01-17T23:28:20.714Z,24.10
2023-01-17T23:33:22.458Z,23.90
2023-01-17T23:38:28.701Z,22.70
2023-01-17T23:43:31.983Z,19.80
2023-01-17T23:48:33.745Z,17.80
2023-01-17T23:53:37.368Z,19.10
2023-01-17T23:58:39.285Z,17.90
